Terminal Aerodrome Forecast
Issued by NWS

Home | Current Version | Previous Version | Graphics & Text | Print | Product List | Glossary On
Versions: 1 2 3 4 5 6 7 8 9 10 11 12 13
445
FTUS43 KICT 170520
TAFHUT
TAF
KHUT 170520Z 1706/1806 17008KT P6SM SCT250
     FM171500 19011G17KT P6SM FEW250
     FM180300 17009KT P6SM FEW250=

USA.gov is the U.S. government's official web portal to all federal, state and local government web resources and services.